Time;durP1;ratioP1;P1;durP2;ratioP2;P2;SDS_P1;SDS_P2;PMS_P1;PMS_P2;Temp;Humidity;BMP_temperature;BMP_pressure;BME280_temperature;BME280_humidity;BME280_pressure;Samples;Min_cycle;Max_cycle;Signal;HPM_P1;HPM_P2
2024/02/28 00:01:52;;;;;;;21.85;10.68;;;;;;;6.66;68.93;99748.00;4944630;28;20034;-95
2024/02/28 00:04:18;;;;;;;27.17;11.25;;;;;;;6.64;68.73;99748.25;4944190;28;20019;-96
2024/02/28 00:06:46;;;;;;;20.90;11.73;;;;;;;6.66;68.62;99751.50;4943910;28;20065;-94
2024/02/28 00:09:11;;;;;;;24.02;11.65;;;;;;;6.84;68.71;99768.47;4975124;28;20042;-96
2024/02/28 00:11:42;;;;;;;25.05;11.15;;;;;;;6.75;68.13;99749.28;4958867;28;20035;-95
2024/02/28 00:14:08;;;;;;;21.92;11.00;;;;;;;6.68;68.34;99744.06;4943449;28;20097;-95
2024/02/28 00:16:33;;;;;;;20.33;11.18;;;;;;;6.70;68.23;99751.03;4959520;28;20026;-95
2024/02/28 00:18:59;;;;;;;25.17;11.73;;;;;;;6.73;68.75;99764.75;4958483;28;20506;-95
2024/02/28 00:21:28;;;;;;;23.10;11.98;;;;;;;6.74;68.55;99761.03;4975690;28;20030;-96
2024/02/28 00:23:59;;;;;;;24.48;12.52;;;;;;;6.72;68.85;99751.59;4975088;28;20438;-96
2024/02/28 00:26:24;;;;;;;22.45;11.55;;;;;;;6.60;68.73;99747.09;4945070;28;20027;-94
2024/02/28 00:28:50;;;;;;;26.92;11.95;;;;;;;6.62;69.01;99758.38;4944220;28;20026;-95
2024/02/28 00:31:21;;;;;;;23.83;12.20;;;;;;;6.71;68.85;99777.56;4960238;28;20484;-96
2024/02/28 00:33:47;;;;;;;24.40;12.35;;;;;;;6.51;68.99;99748.47;4976637;28;20026;-96
2024/02/28 00:36:13;;;;;;;30.60;13.82;;;;;;;6.41;69.11;99742.88;4976405;28;20549;-96
2024/02/28 00:38:38;;;;;;;30.88;12.90;;;;;;;6.40;69.41;99741.25;4944230;28;20054;-94
2024/02/28 00:41:04;;;;;;;24.85;13.23;;;;;;;6.29;69.18;99732.19;4943902;28;20159;-96
2024/02/28 00:43:34;;;;;;;24.25;12.73;;;;;;;6.34;69.40;99740.31;4943894;28;20022;-96
2024/02/28 00:46:00;;;;;;;26.83;13.38;;;;;;;6.37;69.16;99731.84;4902830;28;1316895;-96
2024/02/28 00:48:29;;;;;;;30.88;13.18;;;;;;;6.39;69.44;99731.59;4979399;28;20038;-94
2024/02/28 00:50:54;;;;;;;23.00;12.68;;;;;;;6.45;69.26;99741.38;4948238;28;20104;-94
2024/02/28 00:53:20;;;;;;;22.90;12.65;;;;;;;6.44;69.29;99742.44;4947352;28;20027;-95
2024/02/28 00:55:49;;;;;;;26.45;13.00;;;;;;;6.43;69.68;99738.09;4948314;28;20409;-96
2024/02/28 00:58:14;;;;;;;26.05;12.15;;;;;;;6.54;69.27;99747.22;4964970;28;20028;-96
2024/02/28 01:00:40;;;;;;;26.67;12.40;;;;;;;6.47;69.30;99742.78;4964443;28;20022;-96
2024/02/28 01:03:10;;;;;;;22.48;12.40;;;;;;;6.38;69.99;99732.66;4963376;28;20049;-95
2024/02/28 01:05:39;;;;;;;29.80;12.98;;;;;;;6.36;70.12;99740.91;4963871;28;20524;-95
2024/02/28 01:08:05;;;;;;;21.52;12.90;;;;;;;6.36;69.70;99743.59;4963666;28;20034;-96
2024/02/28 01:10:31;;;;;;;28.83;12.60;;;;;;;6.36;69.95;99743.59;4948971;28;20034;-95
2024/02/28 01:12:57;;;;;;;26.35;13.60;;;;;;;6.35;69.87;99741.13;4949240;28;20081;-96
2024/02/28 01:15:23;;;;;;;22.42;12.18;;;;;;;6.24;70.01;99738.22;4964459;28;20030;-95
2024/02/28 01:17:48;;;;;;;23.35;11.95;;;;;;;6.15;70.12;99734.25;4963790;28;20032;-96
2024/02/28 01:20:14;;;;;;;30.15;13.57;;;;;;;6.09;70.13;99742.38;4963438;28;20026;-96
2024/02/28 01:22:40;;;;;;;26.13;12.20;;;;;;;6.04;69.99;99743.91;4964005;28;20023;-96
2024/02/28 01:25:08;;;;;;;23.50;12.63;;;;;;;6.06;69.87;99741.00;4963266;28;20030;-96
2024/02/28 01:27:34;;;;;;;27.20;12.07;;;;;;;6.00;70.05;99744.59;4949079;28;20045;-96
2024/02/28 01:30:00;;;;;;;20.73;11.90;;;;;;;5.98;70.76;99746.66;4962916;28;20033;-95
2024/02/28 01:32:26;;;;;;;24.00;12.35;;;;;;;5.99;70.34;99746.41;4946634;28;20029;-95
2024/02/28 01:34:51;;;;;;;24.67;11.40;;;;;;;5.99;70.69;99769.66;4962261;28;20416;-95
2024/02/28 01:37:20;;;;;;;22.98;11.50;;;;;;;5.84;70.82;99765.53;4948428;28;20058;-96
2024/02/28 01:39:45;;;;;;;20.70;11.32;;;;;;;5.69;71.04;99759.78;4949757;28;20097;-95
2024/02/28 01:42:11;;;;;;;26.05;11.90;;;;;;;5.87;71.11;99778.44;4963469;28;20420;-95
2024/02/28 01:44:43;;;;;;;24.25;11.68;;;;;;;5.72;71.46;99753.97;4947580;28;20025;-95
2024/02/28 01:47:08;;;;;;;;;;;;;;;5.83;71.32;99781.78;4944044;28;20148;-95
2024/02/28 01:49:34;;;;;;;28.75;10.63;;;;;;;5.72;71.37;99764.66;4944880;28;20384;-95
2024/02/28 01:52:02;;;;;;;28.20;12.00;;;;;;;5.63;71.14;99758.03;4944678;28;20027;-96
2024/02/28 01:54:30;;;;;;;25.58;13.57;;;;;;;5.62;71.37;99756.38;4944963;28;20117;-95
2024/02/28 01:56:55;;;;;;;25.73;11.23;;;;;;;5.66;71.26;99773.59;4944167;28;20034;-95
2024/02/28 01:59:21;;;;;;;26.15;11.85;;;;;;;5.62;70.85;99756.38;4944674;28;20058;-95
2024/02/28 02:01:47;;;;;;;24.02;11.07;;;;;;;5.72;71.66;99782.56;4945448;28;20031;-95
2024/02/28 02:04:12;;;;;;;24.60;11.73;;;;;;;5.68;71.41;99782.19;4944607;28;20089;-96
2024/02/28 02:06:47;;;;;;;19.45;10.98;;;;;;;5.57;70.78;99770.41;4943709;28;20118;-96
2024/02/28 02:09:13;;;;;;;20.33;11.05;;;;;;;5.52;71.26;99759.63;4945276;28;20031;-96
2024/02/28 02:11:39;;;;;;;20.13;11.07;;;;;;;5.57;71.36;99777.63;4950098;28;20031;-96
2024/02/28 02:14:07;;;;;;;21.77;11.63;;;;;;;5.62;71.01;99775.91;4951703;28;20050;-96
2024/02/28 02:16:35;;;;;;;28.77;12.50;;;;;;;5.51;71.40;99770.50;4952412;28;20039;-96
2024/02/28 02:19:01;;;;;;;22.88;10.95;;;;;;;5.60;70.78;99780.66;4951954;28;20117;-96
2024/02/28 02:21:49;;;;;;;25.00;11.32;;;;;;;5.60;71.12;99785.19;4951794;28;20030;-96
2024/02/28 02:24:17;;;;;;;28.08;11.25;;;;;;;5.47;70.52;99770.13;4934911;29;20047;-95
2024/02/28 02:26:45;;;;;;;25.20;11.75;;;;;;;5.38;71.32;99758.16;4934311;29;20034;-96
2024/02/28 02:29:11;;;;;;;21.10;11.60;;;;;;;5.32;71.62;99767.88;4952673;28;20030;-96
2024/02/28 02:31:36;;;;;;;20.92;12.05;;;;;;;5.21;71.71;99768.63;4959601;28;20031;-96
2024/02/28 02:34:02;;;;;;;25.75;12.35;;;;;;;5.30;71.37;99779.81;4940344;29;20398;-96
2024/02/28 02:36:27;;;;;;;21.85;11.88;;;;;;;5.22;71.67;99771.06;4951967;29;20477;-96
2024/02/28 02:38:56;;;;;;;25.67;12.00;;;;;;;5.23;71.51;99771.88;4908994;29;20061;-96
2024/02/28 02:41:21;;;;;;;25.42;12.32;;;;;;;5.38;71.38;99799.00;4923827;29;20446;-94
2024/02/28 02:43:47;;;;;;;26.85;12.43;;;;;;;5.28;71.37;99789.91;4911886;29;20074;-96
2024/02/28 02:46:12;;;;;;;24.05;10.98;;;;;;;5.24;71.96;99800.19;4918028;28;20054;-96
2024/02/28 02:48:38;;;;;;;29.85;11.40;;;;;;;5.17;71.94;99789.59;4931412;28;20062;-96
2024/02/28 02:51:04;;;;;;;22.88;11.55;;;;;;;5.19;71.31;99797.41;4946892;28;20065;-96
2024/02/28 02:53:31;;;;;;;28.80;12.00;;;;;;;5.22;72.02;99794.28;4947578;28;20030;-96
2024/02/28 02:55:57;;;;;;;21.48;11.90;;;;;;;5.14;71.80;99795.38;4947278;28;20577;-95
2024/02/28 02:58:22;;;;;;;18.92;11.05;;;;;;;5.18;71.72;99801.09;4947796;28;20061;-96
2024/02/28 03:00:49;;;;;;;20.38;11.43;;;;;;;5.24;72.46;99827.72;4947197;28;20116;-96
2024/02/28 03:03:15;;;;;;;22.40;11.02;;;;;;;5.25;71.91;99815.19;4947529;28;20032;-96
2024/02/28 03:05:40;;;;;;;21.40;11.52;;;;;;;5.14;71.71;99797.22;4946876;28;20035;-96
2024/02/28 03:08:06;;;;;;;17.05;10.95;;;;;;;5.13;71.72;99807.09;4947142;28;20035;-96
2024/02/28 03:10:32;;;;;;;24.00;11.45;;;;;;;5.09;72.35;99816.59;4962746;28;20119;-96
2024/02/28 03:12:57;;;;;;;21.60;10.63;;;;;;;5.04;71.85;99814.59;4946920;28;20486;-96
2024/02/28 03:15:23;;;;;;;24.58;10.73;;;;;;;5.09;72.63;99826.47;4963837;28;20085;-96
2024/02/28 03:17:49;;;;;;;22.40;11.63;;;;;;;5.05;72.22;99820.75;4931488;28;20048;-96
2024/02/28 03:20:14;;;;;;;21.95;11.82;;;;;;;5.00;72.12;99810.72;4951451;28;20030;-96
2024/02/28 03:22:40;;;;;;;21.00;11.50;;;;;;;4.83;72.25;99807.78;4931424;28;20031;-96
2024/02/28 03:25:06;;;;;;;24.13;12.05;;;;;;;4.98;72.65;99839.50;4962788;28;20030;-96
2024/02/28 03:27:32;;;;;;;18.63;10.43;;;;;;;4.80;72.93;99824.25;4947563;28;20477;-96
2024/02/28 03:29:58;;;;;;;25.52;11.15;;;;;;;5.00;71.92;99847.25;4930735;28;20061;-96
2024/02/28 03:32:23;;;;;;;20.33;10.35;;;;;;;4.83;72.82;99828.31;4930551;28;20595;-96
2024/02/28 03:34:49;;;;;;;19.63;10.40;;;;;;;4.84;72.31;99844.13;4930154;28;20585;-96
2024/02/28 03:37:14;;;;;;;26.35;11.27;;;;;;;4.85;72.51;99842.25;4945779;28;20493;-96
2024/02/28 03:39:40;;;;;;;20.10;10.50;;;;;;;4.81;72.57;99835.72;4929421;28;20065;-96
2024/02/28 03:42:06;;;;;;;24.42;10.52;;;;;;;4.89;72.54;99845.31;4928900;28;20023;-96
2024/02/28 03:44:32;;;;;;;21.73;10.57;;;;;;;5.05;72.47;99866.09;4945393;28;20035;-96
2024/02/28 03:46:57;;;;;;;22.58;11.50;;;;;;;4.87;73.09;99832.19;4929800;28;20050;-94
2024/02/28 03:49:23;;;;;;;26.67;11.05;;;;;;;4.92;72.60;99842.19;4945476;28;20023;-95
2024/02/28 03:51:48;;;;;;;19.23;10.32;;;;;;;5.06;71.99;99847.22;4945418;28;20113;-96
2024/02/28 03:54:14;;;;;;;20.45;11.13;;;;;;;5.15;72.17;99862.94;4944883;28;20026;-95
2024/02/28 03:56:40;;;;;;;20.25;10.13;;;;;;;5.10;72.57;99868.91;4944869;28;20093;-94
2024/02/28 03:59:08;;;;;;;22.60;11.00;;;;;;;5.02;72.54;99855.84;4945421;28;20019;-95
2024/02/28 04:01:33;;;;;;;22.50;11.75;;;;;;;5.01;73.28;99862.25;4960493;28;20085;-96
2024/02/28 04:03:59;;;;;;;23.67;10.80;;;;;;;5.14;72.37;99870.09;4929739;28;20035;-96
2024/02/28 04:06:25;;;;;;;19.63;10.48;;;;;;;4.94;72.46;99848.97;4928726;28;20026;-96
2024/02/28 04:08:50;;;;;;;24.48;9.68;;;;;;;4.95;73.08;99855.94;4945030;28;20022;-95
2024/02/28 04:11:16;;;;;;;28.38;12.05;;;;;;;4.91;72.75;99868.06;4960290;28;20480;-96
2024/02/28 04:13:41;;;;;;;23.08;11.15;;;;;;;4.96;72.95;99870.91;4929038;28;20050;-96
2024/02/28 04:16:08;;;;;;;17.17;10.65;;;;;;;4.88;72.79;99860.53;4944582;28;20023;-95
2024/02/28 04:18:34;;;;;;;17.95;10.68;;;;;;;4.93;72.50;99863.34;4945006;28;20030;-95
2024/02/28 04:20:59;;;;;;;22.88;11.32;;;;;;;5.00;72.05;99860.59;4959998;28;20073;-96
2024/02/28 04:23:25;;;;;;;22.27;10.90;;;;;;;4.98;72.12;99866.19;4946731;28;20027;-95
2024/02/28 04:25:50;;;;;;;28.35;11.68;;;;;;;5.01;71.80;99867.59;4960244;28;20410;-96
2024/02/28 04:28:16;;;;;;;26.02;11.50;;;;;;;4.92;72.95;99866.22;4960114;28;20030;-96
2024/02/28 04:30:41;;;;;;;20.27;10.85;;;;;;;4.91;72.27;99865.41;4941875;28;20122;-96
2024/02/28 04:33:07;;;;;;;20.98;10.50;;;;;;;4.96;72.49;99876.25;4960251;28;20088;-95
2024/02/28 04:35:35;;;;;;;29.15;12.57;;;;;;;5.04;72.12;99893.81;4963982;28;20052;-95
2024/02/28 04:38:01;;;;;;;28.27;12.15;;;;;;;5.03;72.69;99889.53;4964514;28;20119;-96
2024/02/28 04:40:27;;;;;;;24.67;11.10;;;;;;;4.94;72.06;99883.66;4947386;28;20485;-96
2024/02/28 04:42:52;;;;;;;21.17;10.27;;;;;;;5.01;71.95;99887.06;4948836;28;20019;-96
2024/02/28 05:00:52;;;;;;;27.55;12.35;;;;;;;5.01;72.30;99910.28;1975624;23;20224;-91
2024/02/28 05:42:28;;;;;;;21.52;8.77;;;;;;;4.83;72.99;99927.03;5121975;23;20047;-96
2024/02/28 06:02:41;;;;;;;33.22;11.48;;;;;;;5.43;71.57;99964.72;5678604;23;20059;-95
2024/02/28 06:13:41;;;;;;;20.48;10.25;;;;;;;5.64;71.17;99963.50;5546023;23;20444;-95
2024/02/28 06:16:06;;;;;;;30.65;16.98;;;;;;;5.95;70.31;99964.41;4954952;28;20058;-94
2024/02/28 06:45:08;;;;;;;25.70;11.40;;;;;;;7.08;66.30;99941.44;4995278;28;20123;-96
2024/02/28 06:56:17;;;;;;;25.75;12.65;;;;;;;7.74;64.73;99968.13;3043073;23;20306;31
2024/02/28 06:58:42;;;;;;;26.33;11.47;;;;;;;7.72;64.65;99943.44;4892598;29;19931;-92
2024/02/28 07:01:08;;;;;;;25.73;12.48;;;;;;;7.87;64.38;99950.97;4870727;29;20035;-94
2024/02/28 07:03:34;;;;;;;42.60;16.60;;;;;;;8.02;63.94;99942.41;4856458;29;20021;-93
2024/02/28 07:24:53;;;;;;;39.97;17.00;;;;;;;8.70;63.94;99989.09;5141492;23;20025;-96
2024/02/28 07:30:45;;;;;;;;;;;;;;;;;;;;;
2024/02/28 07:49:56;;;;;;;37.90;15.23;;;;;;;10.13;60.32;99952.81;4982335;28;20026;-94
2024/02/28 07:52:34;;;;;;;39.15;16.88;;;;;;;10.09;60.12;99943.63;4981569;28;20042;-96
2024/02/28 07:55:06;;;;;;;42.08;17.50;;;;;;;10.24;59.80;99943.78;5006252;28;20026;-96
2024/02/28 07:57:34;;;;;;;32.47;15.70;;;;;;;10.35;59.42;99938.53;4978327;28;20661;-96
2024/02/28 08:00:06;;;;;;;35.85;17.08;;;;;;;10.31;60.00;99947.13;4969856;28;20038;-96
2024/02/28 08:02:46;;;;;;;26.75;13.57;;;;;;;10.27;59.95;99935.22;4988502;28;20038;-97
2024/02/28 08:05:50;;;;;;;35.33;13.90;;;;;;;10.47;59.80;99961.56;4987793;28;20062;-96
2024/02/28 08:08:28;;;;;;;19.38;9.63;;;;;;;10.39;59.98;99929.69;4964162;28;20129;-96
2024/02/28 08:10:56;;;;;;;27.70;10.93;;;;;;;10.50;59.96;99954.88;4968398;28;20030;-96
2024/02/28 08:19:11;;;;;;;25.70;13.30;;;;;;;11.06;58.04;99939.22;5716272;23;20288;-95
2024/02/28 08:21:39;;;;;;;26.55;13.60;;;;;;;11.16;57.67;99937.66;4908588;29;20034;-95
2024/02/28 08:24:25;;;;;;;25.45;12.32;;;;;;;11.24;57.35;99945.25;4933008;29;20087;-96
2024/02/28 09:03:28;;;;;;;21.25;10.63;;;;;;;13.08;52.90;99926.22;5418853;23;20050;-96
2024/02/28 09:05:54;;;;;;;22.02;12.05;;;;;;;13.22;52.49;99930.00;4946035;28;20130;-94
2024/02/28 09:08:28;;;;;;;21.90;11.75;;;;;;;13.29;52.70;99906.19;4968096;28;20117;-96
2024/02/28 09:10:53;;;;;;;19.27;9.65;;;;;;;13.39;52.25;99910.00;4958634;28;20030;-94
2024/02/28 09:13:22;;;;;;;20.40;9.93;;;;;;;13.54;52.12;99918.84;4940216;28;20396;-95
2024/02/28 09:15:47;;;;;;;18.38;9.50;;;;;;;13.61;51.51;99915.06;4929118;28;20035;-96
2024/02/28 09:18:14;;;;;;;14.32;8.40;;;;;;;13.74;51.67;99918.00;4942548;28;20089;-96
2024/02/28 09:20:50;;;;;;;19.20;8.75;;;;;;;13.77;51.58;99905.00;4959218;28;20030;-96
2024/02/28 09:23:42;;;;;;;17.00;8.85;;;;;;;14.09;50.99;99923.53;5625285;23;20020;31
2024/02/28 09:52:32;;;;;;;15.32;7.93;;;;;;;14.78;49.57;99888.47;2406040;23;20406;31
2024/02/28 09:55:00;;;;;;;15.10;8.57;;;;;;;14.77;49.54;99887.63;4891993;29;20048;-95
2024/02/28 09:57:28;;;;;;;19.25;9.20;;;;;;;14.87;49.66;99905.72;4913171;29;20036;-94
2024/02/28 09:59:57;;;;;;;17.40;8.68;;;;;;;14.90;49.10;99897.84;4909636;29;20067;-94
2024/02/28 10:02:23;;;;;;;11.98;7.97;;;;;;;14.94;49.40;99898.06;4894141;29;20481;-94
2024/02/28 10:05:04;;;;;;;15.38;8.35;;;;;;;14.88;49.16;99883.75;4910769;29;20182;-96
2024/02/28 10:07:42;;;;;;;19.25;9.07;;;;;;;14.78;49.52;99881.13;4914743;29;20091;-95
2024/02/28 10:10:08;;;;;;;17.42;8.40;;;;;;;14.81;49.62;99891.41;4893710;29;20129;-96
2024/02/28 10:28:24;;;;;;;14.07;8.23;;;;;;;14.87;50.26;99859.63;4956269;28;20402;-96
2024/02/28 10:30:50;;;;;;;15.70;8.35;;;;;;;14.87;50.08;99854.22;4915268;29;20042;-96
2024/02/28 10:40:41;;;;;;;17.90;8.18;;;;;;;15.12;49.86;99853.97;4927964;29;20427;-96
2024/02/28 10:43:29;;;;;;;16.00;7.85;;;;;;;15.12;49.85;99836.88;4890488;29;20404;-93
2024/02/28 10:45:58;;;;;;;14.93;7.88;;;;;;;15.10;50.00;99825.53;5153195;23;20057;-94
2024/02/28 10:48:26;;;;;;;17.17;7.47;;;;;;;15.22;49.54;99827.84;4942415;28;20491;-94
2024/02/28 10:50:54;;;;;;;17.60;8.18;;;;;;;15.27;49.31;99833.19;4940350;28;20041;-90
2024/02/28 11:19:55;;;;;;;34.20;17.92;;;;;;;15.78;47.42;99789.19;4984244;28;19944;-96
2024/02/28 11:22:28;;;;;;;16.23;7.45;;;;;;;15.99;47.51;99807.91;4962613;28;20047;-95
2024/02/28 11:24:57;;;;;;;20.25;7.45;;;;;;;16.02;47.22;99802.69;4956083;28;20053;-96
2024/02/28 11:27:23;;;;;;;13.38;7.18;;;;;;;16.00;46.93;99799.47;4948359;28;20037;-96
2024/02/28 11:29:50;;;;;;;14.77;7.38;;;;;;;16.00;47.19;99794.03;4982572;28;20408;-96
2024/02/28 11:32:18;;;;;;;17.80;7.85;;;;;;;16.11;46.86;99790.06;4965100;28;20042;-95
2024/02/28 11:35:06;;;;;;;15.15;7.32;;;;;;;16.10;46.02;99785.75;4973179;28;20026;-96
2024/02/28 11:42:23;;;;;;;;;;;;;;;;;;;;;
2024/02/28 13:15:30;;;;;;;12.23;6.07;;;;;;;16.60;47.58;99717.25;4988419;28;19976;-96
2024/02/28 13:36:23;;;;;;;;;;;;;;;16.94;47.12;99738.66;5088433;23;20001;-96
2024/02/28 13:38:50;;;;;;;14.18;6.88;;;;;;;16.81;46.94;99714.97;4980487;28;19914;-96
2024/02/28 13:41:21;;;;;;;15.27;7.07;;;;;;;16.84;47.06;99711.63;4940946;28;20038;-96
2024/02/28 13:43:49;;;;;;;11.73;6.45;;;;;;;16.96;46.68;99719.31;4962041;28;20086;-96
2024/02/28 14:09:59;;;;;;;13.68;6.25;;;;;;;16.57;47.06;99718.63;5703870;23;20062;-95
2024/02/28 14:12:58;;;;;;;10.60;6.20;;;;;;;16.43;47.56;99708.84;4958020;28;20094;-96
2024/02/28 14:15:30;;;;;;;14.68;5.85;;;;;;;16.60;47.58;99724.56;4987731;28;20026;-96
2024/02/28 14:18:11;;;;;;;;;;;;;;;;;;;;;
2024/02/28 14:21:02;;;;;;;15.43;6.70;;;;;;;16.53;48.01;99741.28;5016393;23;19956;-96
2024/02/28 14:26:24;;;;;;;10.40;5.90;;;;;;;16.42;47.82;99734.44;4983824;28;20076;-96
2024/02/28 14:29:12;;;;;;;12.00;6.32;;;;;;;16.39;47.93;99732.28;4945389;29;20091;-96
2024/02/28 14:31:38;;;;;;;14.48;5.93;;;;;;;16.36;48.20;99736.41;4905582;29;20032;-96
2024/02/28 15:03:48;;;;;;;15.93;7.15;;;;;;;15.87;49.64;99768.41;3306586;23;20028;-94
2024/02/28 15:06:34;;;;;;;15.63;7.18;;;;;;;15.59;49.83;99731.34;4916962;29;20478;-96
2024/02/28 15:09:31;;;;;;;20.42;7.97;;;;;;;15.71;50.06;99758.84;5049886;23;20052;-96
2024/02/28 15:13:12;;;;;;;15.68;7.53;;;;;;;15.61;50.33;99781.50;4858952;29;20091;-96
2024/02/28 15:16:03;;;;;;;14.57;7.03;;;;;;;15.56;50.41;99776.97;4824821;29;20030;-96
2024/02/28 15:18:40;;;;;;;11.05;7.03;;;;;;;15.42;50.92;99770.63;4844169;29;20038;-96
2024/02/28 15:21:07;;;;;;;14.63;7.93;;;;;;;15.27;50.90;99755.34;4942054;23;20090;-96
2024/02/28 15:47:22;;;;;;;15.32;8.45;;;;;;;14.75;52.21;99789.53;5005663;28;20050;-96
2024/02/28 17:39:20;;;;;;;;;;;;;;;;;;;;;
2024/02/28 18:40:25;;;;;;;31.95;14.82;;;;;;;11.70;61.62;99870.84;4998117;28;20054;-95
2024/02/28 18:42:51;;;;;;;29.00;15.27;;;;;;;11.66;61.52;99863.53;4935554;28;20424;-96
2024/02/28 18:45:23;;;;;;;29.98;15.77;;;;;;;11.64;61.85;99866.50;4970164;28;20031;-96
2024/02/28 18:47:49;;;;;;;29.08;15.07;;;;;;;11.63;61.96;99880.25;4955299;28;20181;-96
2024/02/28 18:50:23;;;;;;;32.95;15.75;;;;;;;11.62;62.24;99875.91;4936296;28;20452;-96
2024/02/28 18:52:49;;;;;;;26.60;14.90;;;;;;;11.54;62.77;99871.84;4935113;28;20033;-95
2024/02/28 18:55:15;;;;;;;35.70;17.02;;;;;;;11.43;63.08;99872.84;4947770;28;20034;-96
2024/02/28 18:57:41;;;;;;;36.80;16.63;;;;;;;11.43;63.20;99876.34;4964929;28;20035;-96
2024/02/28 19:00:07;;;;;;;32.17;14.98;;;;;;;11.35;63.30;99881.44;4965673;28;20098;-96
2024/02/28 19:02:33;;;;;;;38.05;14.52;;;;;;;11.29;63.54;99875.22;4932724;28;20031;-96
2024/02/28 19:05:01;;;;;;;32.90;14.00;;;;;;;11.31;63.43;99875.78;4965288;28;20120;-96
2024/02/28 19:07:32;;;;;;;40.72;15.93;;;;;;;11.21;63.69;99871.13;4948853;28;20066;-96
2024/02/28 19:09:58;;;;;;;37.22;16.05;;;;;;;11.30;63.65;99895.72;4932517;28;20528;-96
2024/02/28 19:12:24;;;;;;;27.30;16.10;;;;;;;11.16;64.17;99883.75;4949381;28;20039;-96
2024/02/28 19:14:52;;;;;;;29.40;15.40;;;;;;;11.19;63.84;99881.34;4963982;28;20038;-96
2024/02/28 19:17:18;;;;;;;29.75;16.63;;;;;;;11.12;63.99;99886.16;4932685;28;20054;-96
2024/02/28 19:19:44;;;;;;;34.85;16.25;;;;;;;11.13;63.96;99883.19;4963598;28;20115;-96
2024/02/28 19:22:09;;;;;;;34.97;16.65;;;;;;;11.01;63.91;99871.78;4963324;28;20548;-96
2024/02/28 19:24:35;;;;;;;32.13;16.70;;;;;;;11.13;64.07;99895.88;4963097;28;20026;-96
2024/02/28 19:27:01;;;;;;;30.92;15.25;;;;;;;11.07;64.16;99892.31;4946658;28;20034;-96
2024/02/28 19:29:29;;;;;;;26.35;14.45;;;;;;;10.97;63.91;99873.38;4948132;28;20066;-96
2024/02/28 19:31:57;;;;;;;28.02;14.40;;;;;;;10.98;64.11;99879.56;4964943;28;20030;-96
2024/02/28 19:34:23;;;;;;;26.58;13.13;;;;;;;11.03;64.13;99885.00;4931766;28;20054;-96
2024/02/28 19:36:48;;;;;;;24.55;11.77;;;;;;;10.91;64.59;99883.34;4965626;28;20023;-96
2024/02/28 19:39:17;;;;;;;19.77;11.57;;;;;;;10.89;64.85;99880.09;4964300;28;20543;-96
2024/02/28 19:41:42;;;;;;;26.15;13.00;;;;;;;10.84;64.75;99887.31;4932274;28;20062;-96
2024/02/28 19:44:08;;;;;;;29.77;12.60;;;;;;;10.75;64.98;99878.88;4947003;28;20022;-96
2024/02/28 19:46:34;;;;;;;23.75;12.55;;;;;;;10.77;64.97;99889.38;4962189;28;20049;-96
2024/02/28 19:49:00;;;;;;;21.55;13.95;;;;;;;10.71;64.95;99894.75;4962925;28;20034;-95
2024/02/28 19:51:26;;;;;;;29.50;14.07;;;;;;;10.67;65.25;99895.53;4947688;28;20027;-96
2024/02/28 19:53:53;;;;;;;28.20;15.32;;;;;;;10.63;65.22;99889.81;4930261;28;20126;-96
2024/02/28 19:56:28;;;;;;;25.27;14.27;;;;;;;10.56;65.48;99889.19;4962409;28;20038;-96
2024/02/28 19:58:54;;;;;;;25.77;13.65;;;;;;;10.56;65.50;99899.97;4966161;28;20570;-96
2024/02/28 20:01:20;;;;;;;29.30;14.10;;;;;;;10.50;65.44;99901.81;4931304;28;20108;-96
2024/02/28 20:03:46;;;;;;;25.75;12.00;;;;;;;10.40;65.68;99898.22;4962570;28;20527;-96
2024/02/28 20:06:13;;;;;;;26.10;14.05;;;;;;;10.38;65.64;99903.84;4932544;28;20121;-96
2024/02/28 20:08:41;;;;;;;22.67;13.57;;;;;;;10.45;65.26;99912.53;4948248;28;20026;-96
2024/02/28 20:11:07;;;;;;;24.35;14.18;;;;;;;10.36;65.28;99889.84;4964915;28;20030;-96
2024/02/28 20:13:33;;;;;;;27.42;14.60;;;;;;;10.33;65.60;99890.34;4945848;28;20041;-96
2024/02/28 20:16:01;;;;;;;24.00;13.25;;;;;;;10.16;65.84;99887.72;4946748;28;20412;-96
2024/02/28 20:18:27;;;;;;;62.63;29.63;;;;;;;10.21;66.16;99895.03;4930652;28;20129;-96
2024/02/28 20:20:53;;;;;;;22.88;12.57;;;;;;;10.35;66.46;99908.94;4962673;28;20080;-96
2024/02/28 20:23:19;;;;;;;20.38;12.05;;;;;;;10.23;66.25;99888.34;4946213;28;20026;-96
2024/02/28 20:25:47;;;;;;;19.55;12.85;;;;;;;10.25;66.74;99905.03;4961841;28;20027;-96
2024/02/28 20:28:13;;;;;;;23.13;11.02;;;;;;;10.22;66.79;99912.81;4962922;28;20505;-96
2024/02/28 20:30:42;;;;;;;25.20;12.63;;;;;;;10.12;66.61;99894.66;4948425;28;20041;-96
2024/02/28 20:33:13;;;;;;;25.73;11.73;;;;;;;10.08;66.46;99886.28;4970573;28;20033;-96
2024/02/28 20:35:40;;;;;;;20.10;10.30;;;;;;;10.16;66.59;99901.16;4968053;28;20458;-96
2024/02/28 20:38:09;;;;;;;20.35;11.35;;;;;;;10.09;66.92;99905.94;4967277;28;20038;-96
2024/02/28 20:40:35;;;;;;;21.38;9.75;;;;;;;9.88;67.10;99888.75;4951868;28;20089;-96
2024/02/28 20:43:02;;;;;;;18.77;11.00;;;;;;;9.97;67.04;99881.06;4968408;28;20126;-96
2024/02/28 20:45:28;;;;;;;20.45;11.05;;;;;;;9.98;66.59;99880.81;4967154;28;20057;-96
2024/02/28 20:47:57;;;;;;;20.58;11.68;;;;;;;10.04;66.82;99885.19;4952195;28;20027;-96
2024/02/28 20:50:26;;;;;;;21.60;10.52;;;;;;;10.02;66.95;99894.53;4971855;28;20416;-96
2024/02/28 20:52:53;;;;;;;18.77;11.38;;;;;;;10.08;67.18;99905.09;4956219;28;20046;-96
2024/02/28 20:55:28;;;;;;;24.67;11.80;;;;;;;10.08;67.36;99899.72;4971678;28;20055;-96
2024/02/28 20:58:09;;;;;;;;;;;;;;;;;;;;;
2024/02/28 21:00:37;;;;;;;25.60;13.73;;;;;;;9.99;66.93;99885.09;4973787;28;20493;-96
2024/02/28 21:03:17;;;;;;;20.88;13.13;;;;;;;9.91;66.78;99869.41;4968115;28;20535;-96
2024/02/28 21:05:43;;;;;;;25.65;13.35;;;;;;;10.09;67.19;99895.19;4983017;28;20022;-96
2024/02/28 21:08:11;;;;;;;22.45;13.52;;;;;;;9.84;67.48;99866.13;4967675;28;20022;-96
2024/02/28 21:10:43;;;;;;;23.63;11.65;;;;;;;9.73;68.06;99870.53;4951103;28;20053;-96
2024/02/28 21:13:12;;;;;;;20.85;11.52;;;;;;;9.73;67.81;99878.59;4952357;28;20520;-96
2024/02/28 21:15:45;;;;;;;21.95;12.75;;;;;;;9.60;67.87;99876.31;4951728;28;20031;-96
2024/02/28 21:18:11;;;;;;;18.85;11.75;;;;;;;9.49;68.29;99868.09;4949999;28;20031;-96
2024/02/28 21:20:39;;;;;;;22.38;12.02;;;;;;;9.49;67.90;99878.06;4928385;28;20117;-96
2024/02/28 21:23:04;;;;;;;20.98;10.95;;;;;;;9.40;67.85;99876.84;4960234;28;20476;-96
2024/02/28 21:25:30;;;;;;;22.95;11.75;;;;;;;9.34;68.00;99888.56;4945393;28;20033;-96
2024/02/28 21:27:56;;;;;;;21.27;11.90;;;;;;;9.27;68.32;99888.75;4944639;28;20086;-96
2024/02/28 21:30:21;;;;;;;21.13;11.88;;;;;;;9.23;69.07;99904.53;4960567;28;20027;-96
2024/02/28 21:32:47;;;;;;;25.73;12.80;;;;;;;9.16;68.99;99887.00;4929236;28;20069;-96
2024/02/28 21:35:15;;;;;;;23.48;11.65;;;;;;;9.15;69.08;99893.41;4928655;28;20066;-96
2024/02/28 21:37:43;;;;;;;20.48;11.57;;;;;;;9.17;68.93;99908.25;4961124;28;20090;-96
2024/02/28 21:40:09;;;;;;;22.77;10.82;;;;;;;9.05;69.29;99892.22;4929545;28;20170;-96
2024/02/28 21:42:35;;;;;;;27.88;11.43;;;;;;;9.12;68.75;99910.03;4945348;28;20572;-96
2024/02/28 21:45:01;;;;;;;30.55;12.63;;;;;;;8.96;69.11;99885.59;4930563;28;20018;-96
2024/02/28 21:47:30;;;;;;;21.95;10.85;;;;;;;8.89;69.29;99893.03;4960641;28;20122;-96
2024/02/28 21:49:55;;;;;;;18.35;10.80;;;;;;;8.83;69.05;99884.06;4945217;28;20025;-96
2024/02/28 21:52:21;;;;;;;25.85;13.10;;;;;;;8.99;69.16;99921.94;4944810;28;20027;-96
2024/02/28 21:54:47;;;;;;;26.63;11.13;;;;;;;8.81;69.63;99904.97;4960269;28;20113;-96
2024/02/28 21:57:13;;;;;;;24.63;11.95;;;;;;;8.65;70.05;99892.34;4944160;28;20081;-96
2024/02/28 21:59:38;;;;;;;29.80;11.88;;;;;;;8.73;69.67;99904.56;4960054;28;20106;-96
2024/02/28 22:02:04;;;;;;;27.80;12.43;;;;;;;8.69;70.58;99912.28;4959973;28;20031;-96
2024/02/28 22:04:30;;;;;;;25.40;13.27;;;;;;;8.63;70.29;99911.41;4959882;28;20081;-96
2024/02/28 22:06:57;;;;;;;20.13;12.13;;;;;;;8.55;70.58;99901.06;4959853;28;20027;-96
2024/02/28 22:09:22;;;;;;;23.05;12.48;;;;;;;8.50;70.92;99898.28;4928508;28;20093;-95
2024/02/28 22:11:52;;;;;;;26.40;11.38;;;;;;;8.61;70.30;99908.16;4959697;28;20026;-96